Wetterdaten: Woche 10.09.18 - 16.09.18 (KW37)
Datum Zeit Temperatur Luftfeuchte Luftdruck Niederschlag Windrichtung Sonnenschein Solar Wind
10.09.2018 00:00 14,0 C 88 % 1020,0 hPa 0,0 l/m N 0,00 h 0 W/m 0,1 km/h (0 Bft)
10.09.2018 01:00 13,2 C 89 % 1019,9 hPa 0,0 l/m N 0,00 h 0 W/m 0,0 km/h (0 Bft)
10.09.2018 02:00 12,1 C 92 % 1019,8 hPa 0,0 l/m N 0,00 h 0 W/m 0,0 km/h (0 Bft)
10.09.2018 03:00 11,4 C 94 % 1020,0 hPa 0,0 l/m N 0,00 h 0 W/m 0,0 km/h (0 Bft)
10.09.2018 04:00 10,7 C 95 % 1019,9 hPa 0,0 l/m N 0,00 h 0 W/m 0,0 km/h (0 Bft)
10.09.2018 05:00 10,4 C 96 % 1019,8 hPa 0,0 l/m N 0,00 h 0 W/m 0,0 km/h (0 Bft)
10.09.2018 06:00 10,1 C 96 % 1020,5 hPa 0,0 l/m N 0,00 h 6 W/m 0,0 km/h (0 Bft)
10.09.2018 07:00 9,6 C 97 % 1020,8 hPa 0,0 l/m N 0,33 h 53 W/m 0,0 km/h (0 Bft)
10.09.2018 08:00 11,3 C 97 % 1021,0 hPa 0,0 l/m N 0,83 h 174 W/m 0,0 km/h (0 Bft)
10.09.2018 09:00 15,0 C 90 % 1021,3 hPa 0,0 l/m SO 1,00 h 394 W/m 4,0 km/h (1 Bft)
10.09.2018 10:00 19,0 C 78 % 1021,5 hPa 0,0 l/m S 0,92 h 496 W/m 9,7 km/h (2 Bft)
10.09.2018 11:00 22,2 C 65 % 1021,3 hPa 0,0 l/m S-SO 1,00 h 662 W/m 8,6 km/h (2 Bft)
10.09.2018 12:00 24,5 C 52 % 1021,2 hPa 0,0 l/m SO 1,00 h 691 W/m 9,8 km/h (2 Bft)
10.09.2018 13:00 25,2 C 46 % 1021,1 hPa 0,0 l/m SW 1,00 h 576 W/m 11,0 km/h (2 Bft)
10.09.2018 14:00 26,4 C 44 % 1020,9 hPa 0,0 l/m S-SO 1,00 h 711 W/m 16,4 km/h (3 Bft)
10.09.2018 15:00 26,2 C 42 % 1020,5 hPa 0,0 l/m S-SW 1,00 h 547 W/m 17,3 km/h (3 Bft)
10.09.2018 16:00 26,0 C 41 % 1020,1 hPa 0,0 l/m S-SW 1,00 h 418 W/m 15,4 km/h (3 Bft)
10.09.2018 17:00 25,3 C 40 % 1020,1 hPa 0,0 l/m S-SW 1,00 h 273 W/m 16,2 km/h (3 Bft)
10.09.2018 18:00 24,2 C 44 % 1020,2 hPa 0,0 l/m SW 0,67 h 127 W/m 13,0 km/h (3 Bft)
10.09.2018 19:00 21,6 C 54 % 1020,6 hPa 0,0 l/m SW 0,25 h 25 W/m 1,5 km/h (1 Bft)
10.09.2018 20:00 18,1 C 70 % 1021,1 hPa 0,0 l/m N 0,00 h 0 W/m 0,0 km/h (0 Bft)
10.09.2018 21:00 16,1 C 78 % 1021,7 hPa 0,0 l/m N 0,00 h 0 W/m 0,0 km/h (0 Bft)
10.09.2018 22:00 15,0 C 79 % 1021,7 hPa 0,0 l/m N 0,00 h 0 W/m 0,0 km/h (0 Bft)
10.09.2018 23:00 14,1 C 83 % 1022,0 hPa 0,0 l/m N 0,00 h 0 W/m 0,0 km/h (0 Bft)
11.09.2018 00:00 13,5 C 85 % 1022,2 hPa 0,0 l/m N 0,00 h 0 W/m 0,0 km/h (0 Bft)
11.09.2018 01:00 12,8 C 87 % 1022,4 hPa 0,0 l/m N 0,00 h 0 W/m 0,0 km/h (0 Bft)
11.09.2018 02:00 12,3 C 88 % 1022,3 hPa 0,0 l/m N 0,00 h 0 W/m 0,0 km/h (0 Bft)
11.09.2018 03:00 11,9 C 90 % 1022,3 hPa 0,0 l/m N 0,00 h 0 W/m 0,0 km/h (0 Bft)
11.09.2018 04:00 11,3 C 91 % 1022,5 hPa 0,0 l/m N 0,00 h 0 W/m 0,0 km/h (0 Bft)
11.09.2018 05:00 11,0 C 93 % 1022,6 hPa 0,0 l/m N 0,00 h 0 W/m 0,0 km/h (0 Bft)
11.09.2018 06:00 10,7 C 94 % 1022,9 hPa 0,0 l/m N 0,00 h 5 W/m 0,0 km/h (0 Bft)
11.09.2018 07:00 10,9 C 95 % 1023,4 hPa 0,0 l/m N 0,17 h 44 W/m 0,0 km/h (0 Bft)
11.09.2018 08:00 12,7 C 92 % 1023,7 hPa 0,0 l/m N 0,50 h 146 W/m 0,0 km/h (0 Bft)
11.09.2018 09:00 16,1 C 83 % 1023,7 hPa 0,0 l/m SW 1,00 h 369 W/m 0,8 km/h (0 Bft)
11.09.2018 10:00 20,4 C 70 % 1023,7 hPa 0,0 l/m S 0,92 h 475 W/m 11,2 km/h (2 Bft)
11.09.2018 11:00 22,8 C 62 % 1023,2 hPa 0,0 l/m S-SW 1,00 h 581 W/m 14,9 km/h (3 Bft)
11.09.2018 12:00 24,9 C 52 % 1022,6 hPa 0,0 l/m W-SW 1,00 h 627 W/m 16,8 km/h (3 Bft)
11.09.2018 13:00 25,8 C 44 % 1022,3 hPa 0,0 l/m W-SW 1,00 h 613 W/m 20,6 km/h (4 Bft)
11.09.2018 14:00 26,9 C 40 % 1022,0 hPa 0,0 l/m W-SW 1,00 h 673 W/m 18,8 km/h (3 Bft)
11.09.2018 15:00 27,9 C 36 % 1021,6 hPa 0,0 l/m W 1,00 h 582 W/m 15,3 km/h (3 Bft)
11.09.2018 16:00 28,1 C 36 % 1021,3 hPa 0,0 l/m W 1,00 h 447 W/m 10,5 km/h (2 Bft)
11.09.2018 17:00 27,6 C 38 % 1021,1 hPa 0,0 l/m SW 1,00 h 305 W/m 11,7 km/h (2 Bft)
11.09.2018 18:00 26,4 C 41 % 1020,8 hPa 0,0 l/m SW 0,83 h 130 W/m 9,5 km/h (2 Bft)
11.09.2018 19:00 23,7 C 48 % 1020,7 hPa 0,0 l/m SW 0,08 h 16 W/m 6,9 km/h (2 Bft)
11.09.2018 20:00 21,4 C 55 % 1021,3 hPa 0,0 l/m SW 0,00 h 0 W/m 1,9 km/h (1 Bft)
11.09.2018 21:00 18,9 C 67 % 1021,6 hPa 0,0 l/m N 0,00 h 0 W/m 0,0 km/h (0 Bft)
11.09.2018 22:00 17,0 C 75 % 1021,8 hPa 0,0 l/m N 0,00 h 0 W/m 0,5 km/h (0 Bft)
11.09.2018 23:00 15,9 C 79 % 1022,0 hPa 0,0 l/m N 0,00 h 0 W/m 0,0 km/h (0 Bft)
12.09.2018 00:00 14,7 C 83 % 1022,0 hPa 0,0 l/m N 0,00 h 0 W/m 0,0 km/h (0 Bft)
12.09.2018 01:00 13,7 C 88 % 1021,6 hPa 0,0 l/m N 0,00 h 0 W/m 0,0 km/h (0 Bft)
12.09.2018 02:00 12,6 C 91 % 1021,5 hPa 0,0 l/m N 0,00 h 0 W/m 0,0 km/h (0 Bft)
12.09.2018 03:00 12,1 C 93 % 1021,0 hPa 0,0 l/m N 0,00 h 0 W/m 0,0 km/h (0 Bft)
12.09.2018 04:00 11,6 C 94 % 1020,6 hPa 0,0 l/m N 0,00 h 0 W/m 0,0 km/h (0 Bft)
12.09.2018 05:00 11,0 C 95 % 1020,4 hPa 0,0 l/m N 0,00 h 0 W/m 0,0 km/h (0 Bft)
12.09.2018 06:00 10,5 C 95 % 1020,3 hPa 0,0 l/m N 0,00 h 5 W/m 0,0 km/h (0 Bft)
12.09.2018 07:00 10,6 C 96 % 1020,4 hPa 0,0 l/m N 0,33 h 45 W/m 0,0 km/h (0 Bft)
12.09.2018 08:00 12,2 C 94 % 1020,5 hPa 0,0 l/m N 0,83 h 164 W/m 0,0 km/h (0 Bft)
12.09.2018 09:00 16,7 C 85 % 1020,5 hPa 0,0 l/m SW 1,00 h 369 W/m 6,7 km/h (2 Bft)
12.09.2018 10:00 20,0 C 76 % 1020,5 hPa 0,0 l/m S-SW 0,92 h 470 W/m 10,8 km/h (2 Bft)
12.09.2018 11:00 23,3 C 65 % 1020,3 hPa 0,0 l/m S 1,00 h 629 W/m 11,4 km/h (2 Bft)
12.09.2018 12:00 25,7 C 56 % 1019,8 hPa 0,0 l/m S 1,00 h 695 W/m 14,6 km/h (3 Bft)
12.09.2018 13:00 27,8 C 44 % 1019,2 hPa 0,0 l/m W 1,00 h 710 W/m 14,2 km/h (3 Bft)
12.09.2018 14:00 29,1 C 37 % 1018,6 hPa 0,0 l/m SW 1,00 h 681 W/m 11,9 km/h (2 Bft)
12.09.2018 15:00 29,5 C 36 % 1017,9 hPa 0,0 l/m W-SW 1,00 h 592 W/m 13,8 km/h (3 Bft)
12.09.2018 16:00 29,3 C 38 % 1017,1 hPa 0,0 l/m S-SW 1,00 h 453 W/m 13,7 km/h (3 Bft)
12.09.2018 17:00 28,6 C 40 % 1016,5 hPa 0,0 l/m SW 1,00 h 302 W/m 15,7 km/h (3 Bft)
12.09.2018 18:00 27,2 C 44 % 1016,1 hPa 0,0 l/m S-SW 0,50 h 108 W/m 9,7 km/h (2 Bft)
12.09.2018 19:00 24,2 C 53 % 1015,9 hPa 0,0 l/m N 0,08 h 18 W/m 0,0 km/h (0 Bft)
12.09.2018 20:00 21,2 C 64 % 1016,2 hPa 0,0 l/m N 0,00 h 0 W/m 0,0 km/h (0 Bft)
12.09.2018 21:00 18,9 C 74 % 1016,3 hPa 0,0 l/m N 0,00 h 0 W/m 0,0 km/h (0 Bft)
12.09.2018 22:00 17,7 C 78 % 1016,1 hPa 0,0 l/m N 0,00 h 0 W/m 0,0 km/h (0 Bft)
12.09.2018 23:00 18,2 C 74 % 1016,4 hPa 0,0 l/m N-NW 0,00 h 0 W/m 7,4 km/h (2 Bft)
13.09.2018 00:00 19,9 C 69 % 1016,3 hPa 0,0 l/m NW 0,00 h 0 W/m 6,2 km/h (2 Bft)
13.09.2018 01:00 18,7 C 75 % 1015,8 hPa 0,0 l/m N 0,00 h 0 W/m 0,0 km/h (0 Bft)
13.09.2018 02:00 18,0 C 79 % 1016,1 hPa 0,0 l/m W-SW 0,00 h 0 W/m 13,1 km/h (3 Bft)
13.09.2018 03:00 18,3 C 82 % 1016,9 hPa 0,2 l/m SW 0,00 h 0 W/m 8,5 km/h (2 Bft)
13.09.2018 04:00 16,9 C 91 % 1015,9 hPa 0,2 l/m N 0,00 h 0 W/m 0,3 km/h (0 Bft)
13.09.2018 05:00 16,2 C 95 % 1015,4 hPa 0,0 l/m N 0,00 h 0 W/m 0,0 km/h (0 Bft)
13.09.2018 06:00 16,0 C 96 % 1015,0 hPa 0,0 l/m N 0,00 h 5 W/m 0,0 km/h (0 Bft)
13.09.2018 07:00 15,5 C 97 % 1014,9 hPa 0,0 l/m N 0,00 h 28 W/m 0,0 km/h (0 Bft)
13.09.2018 08:00 16,1 C 98 % 1014,8 hPa 0,0 l/m N 0,58 h 149 W/m 0,0 km/h (0 Bft)
13.09.2018 09:00 18,4 C 93 % 1014,7 hPa 0,0 l/m SW 1,00 h 345 W/m 2,5 km/h (1 Bft)
13.09.2018 10:00 20,6 C 81 % 1014,8 hPa 0,0 l/m S-SW 0,92 h 464 W/m 10,5 km/h (2 Bft)
13.09.2018 11:00 22,0 C 72 % 1014,9 hPa 0,0 l/m S-SW 1,00 h 600 W/m 10,3 km/h (2 Bft)
13.09.2018 12:00 23,9 C 65 % 1014,5 hPa 0,0 l/m SW 0,75 h 520 W/m 7,0 km/h (2 Bft)
13.09.2018 13:00 25,0 C 60 % 1014,0 hPa 0,0 l/m SW 0,50 h 425 W/m 4,9 km/h (1 Bft)
13.09.2018 14:00 25,5 C 57 % 1013,3 hPa 0,0 l/m S-SW 0,58 h 476 W/m 7,2 km/h (2 Bft)
13.09.2018 15:00 23,1 C 64 % 1013,2 hPa 0,0 l/m N-NO 0,00 h 110 W/m 18,8 km/h (3 Bft)
13.09.2018 16:00 19,4 C 81 % 1013,6 hPa 2,4 l/m O-NO 0,00 h 18 W/m 3,3 km/h (1 Bft)
13.09.2018 17:00 18,2 C 92 % 1013,2 hPa 1,6 l/m O-NO 0,08 h 135 W/m 5,5 km/h (1 Bft)
13.09.2018 18:00 18,3 C 94 % 1013,7 hPa 0,0 l/m O-NO 0,00 h 48 W/m 0,4 km/h (0 Bft)
13.09.2018 19:00 17,7 C 95 % 1014,4 hPa 0,4 l/m N-NO 0,00 h 10 W/m 7,1 km/h (2 Bft)
13.09.2018 20:00 16,3 C 92 % 1014,9 hPa 0,0 l/m N 0,00 h 0 W/m 13,6 km/h (3 Bft)
13.09.2018 21:00 15,6 C 93 % 1015,7 hPa 0,0 l/m N 0,00 h 0 W/m 0,5 km/h (0 Bft)
13.09.2018 22:00 15,1 C 95 % 1016,3 hPa 1,2 l/m N-NW 0,00 h 0 W/m 9,8 km/h (2 Bft)
13.09.2018 23:00 14,5 C 96 % 1016,2 hPa 1,4 l/m N-NW 0,00 h 0 W/m 2,7 km/h (1 Bft)
14.09.2018 00:00 14,4 C 97 % 1016,0 hPa 0,2 l/m N 0,00 h 0 W/m 0,0 km/h (0 Bft)
14.09.2018 01:00 14,2 C 97 % 1016,3 hPa 0,2 l/m N 0,00 h 0 W/m 0,0 km/h (0 Bft)
14.09.2018 02:00 14,2 C 98 % 1016,3 hPa 0,0 l/m N 0,00 h 0 W/m 0,0 km/h (0 Bft)
14.09.2018 03:00 14,0 C 98 % 1016,3 hPa 0,2 l/m N 0,00 h 0 W/m 0,0 km/h (0 Bft)
14.09.2018 04:00 14,0 C 98 % 1016,1 hPa 0,0 l/m N 0,00 h 0 W/m 0,1 km/h (0 Bft)
14.09.2018 05:00 13,8 C 99 % 1016,1 hPa 0,0 l/m N 0,00 h 0 W/m 0,0 km/h (0 Bft)
14.09.2018 06:00 13,7 C 99 % 1016,1 hPa 0,0 l/m N 0,00 h 0 W/m 0,0 km/h (0 Bft)
14.09.2018 07:00 13,6 C 99 % 1016,4 hPa 0,0 l/m N 0,00 h 22 W/m 0,0 km/h (0 Bft)
14.09.2018 08:00 14,2 C 99 % 1016,9 hPa 0,0 l/m N 0,00 h 94 W/m 0,5 km/h (0 Bft)
14.09.2018 09:00 14,9 C 98 % 1017,1 hPa 0,0 l/m N 0,25 h 218 W/m 0,7 km/h (0 Bft)
14.09.2018 10:00 16,1 C 94 % 1017,5 hPa 0,0 l/m N 0,00 h 218 W/m 0,8 km/h (0 Bft)
14.09.2018 11:00 17,3 C 88 % 1017,6 hPa 0,0 l/m N-NW 0,33 h 400 W/m 2,9 km/h (1 Bft)
14.09.2018 12:00 18,3 C 83 % 1017,5 hPa 0,0 l/m N-NO 0,50 h 447 W/m 7,1 km/h (2 Bft)
14.09.2018 13:00 18,9 C 79 % 1017,3 hPa 0,0 l/m NO 0,33 h 401 W/m 8,4 km/h (2 Bft)
14.09.2018 14:00 21,0 C 71 % 1016,9 hPa 0,0 l/m NO 0,83 h 704 W/m 8,7 km/h (2 Bft)
14.09.2018 15:00 21,2 C 69 % 1016,6 hPa 0,0 l/m NO 0,50 h 384 W/m 7,8 km/h (2 Bft)
14.09.2018 16:00 21,4 C 67 % 1016,1 hPa 0,0 l/m O 0,50 h 333 W/m 7,5 km/h (2 Bft)
14.09.2018 17:00 20,7 C 69 % 1016,2 hPa 0,0 l/m N 0,08 h 94 W/m 2,8 km/h (1 Bft)
14.09.2018 18:00 19,9 C 73 % 1016,2 hPa 0,0 l/m O 0,08 h 55 W/m 2,4 km/h (1 Bft)
14.09.2018 19:00 19,0 C 78 % 1016,3 hPa 0,0 l/m N 0,33 h 20 W/m 0,0 km/h (0 Bft)
14.09.2018 20:00 17,5 C 86 % 1016,8 hPa 0,0 l/m N 0,00 h 0 W/m 0,0 km/h (0 Bft)
14.09.2018 21:00 17,3 C 88 % 1017,3 hPa 0,0 l/m N 0,00 h 0 W/m 1,1 km/h (0 Bft)
14.09.2018 22:00 16,6 C 91 % 1017,7 hPa 1,6 l/m N 0,00 h 0 W/m 3,2 km/h (1 Bft)
14.09.2018 23:00 15,5 C 95 % 1017,8 hPa 0,0 l/m N 0,00 h 0 W/m 0,0 km/h (0 Bft)
15.09.2018 00:00 14,9 C 97 % 1017,8 hPa 0,2 l/m N 0,00 h 0 W/m 0,0 km/h (0 Bft)
15.09.2018 01:00 14,4 C 98 % 1018,1 hPa 0,0 l/m N 0,00 h 0 W/m 0,0 km/h (0 Bft)
15.09.2018 02:00 14,3 C 98 % 1018,2 hPa 0,0 l/m N 0,00 h 0 W/m 0,4 km/h (0 Bft)
15.09.2018 03:00 14,2 C 98 % 1018,4 hPa 0,0 l/m N 0,00 h 0 W/m 0,0 km/h (0 Bft)
15.09.2018 04:00 13,7 C 98 % 1018,5 hPa 0,0 l/m N 0,00 h 0 W/m 0,0 km/h (0 Bft)
15.09.2018 05:00 13,5 C 99 % 1018,9 hPa 0,0 l/m N 0,00 h 0 W/m 0,0 km/h (0 Bft)
15.09.2018 06:00 13,4 C 99 % 1019,4 hPa 0,0 l/m O-NO 0,00 h 5 W/m 2,3 km/h (1 Bft)
15.09.2018 07:00 13,1 C 99 % 1020,1 hPa 0,0 l/m N 0,17 h 29 W/m 1,7 km/h (1 Bft)
15.09.2018 08:00 13,6 C 98 % 1020,9 hPa 0,0 l/m N 0,00 h 82 W/m 0,0 km/h (0 Bft)
15.09.2018 09:00 14,7 C 96 % 1021,3 hPa 0,0 l/m O-NO 0,25 h 197 W/m 1,9 km/h (1 Bft)
15.09.2018 10:00 15,5 C 89 % 1021,6 hPa 0,0 l/m NO 0,42 h 381 W/m 3,5 km/h (1 Bft)
15.09.2018 11:00 16,9 C 80 % 1021,6 hPa 0,2 l/m N 0,67 h 499 W/m 2,3 km/h (1 Bft)
15.09.2018 12:00 18,4 C 69 % 1021,4 hPa 0,0 l/m N 0,67 h 500 W/m 2,1 km/h (1 Bft)
15.09.2018 13:00 19,2 C 66 % 1021,2 hPa 0,0 l/m NO 0,50 h 448 W/m 4,0 km/h (1 Bft)
15.09.2018 14:00 20,1 C 63 % 1020,9 hPa 0,0 l/m N-NW 0,50 h 411 W/m 7,0 km/h (2 Bft)
15.09.2018 15:00 20,6 C 58 % 1020,6 hPa 0,0 l/m NW 0,67 h 467 W/m 8,1 km/h (2 Bft)
15.09.2018 16:00 21,7 C 51 % 1020,3 hPa 0,0 l/m N 1,00 h 466 W/m 10,2 km/h (2 Bft)
15.09.2018 17:00 21,4 C 52 % 1020,3 hPa 0,0 l/m NO 1,00 h 289 W/m 9,3 km/h (2 Bft)
15.09.2018 18:00 20,3 C 54 % 1020,5 hPa 0,0 l/m NO 0,50 h 94 W/m 6,8 km/h (2 Bft)
15.09.2018 19:00 18,2 C 63 % 1021,0 hPa 0,0 l/m NO 0,08 h 15 W/m 4,9 km/h (1 Bft)
15.09.2018 20:00 16,1 C 69 % 1021,7 hPa 0,0 l/m NO 0,00 h 0 W/m 2,0 km/h (1 Bft)
15.09.2018 21:00 13,9 C 78 % 1022,2 hPa 0,0 l/m N 0,00 h 0 W/m 0,0 km/h (0 Bft)
15.09.2018 22:00 12,4 C 83 % 1022,3 hPa 0,0 l/m N 0,00 h 0 W/m 0,0 km/h (0 Bft)
15.09.2018 23:00 11,6 C 86 % 1022,4 hPa 0,0 l/m N 0,00 h 0 W/m 0,1 km/h (0 Bft)
16.09.2018 00:00 11,2 C 87 % 1022,5 hPa 0,0 l/m N 0,00 h 0 W/m 1,5 km/h (1 Bft)
16.09.2018 01:00 11,0 C 86 % 1022,3 hPa 0,0 l/m N 0,00 h 0 W/m 2,1 km/h (1 Bft)
16.09.2018 02:00 10,4 C 87 % 1022,1 hPa 0,0 l/m N 0,00 h 0 W/m 0,0 km/h (0 Bft)
16.09.2018 03:00 10,1 C 87 % 1021,8 hPa 0,0 l/m NO 0,00 h 0 W/m 1,7 km/h (1 Bft)
16.09.2018 04:00 9,7 C 88 % 1021,3 hPa 0,0 l/m N 0,00 h 0 W/m 0,8 km/h (0 Bft)
16.09.2018 05:00 9,3 C 89 % 1021,0 hPa 0,0 l/m NO 0,00 h 0 W/m 1,7 km/h (1 Bft)
16.09.2018 06:00 8,9 C 90 % 1020,9 hPa 0,0 l/m N 0,00 h 5 W/m 1,1 km/h (0 Bft)
16.09.2018 07:00 8,9 C 90 % 1020,9 hPa 0,0 l/m NO 0,17 h 37 W/m 3,6 km/h (1 Bft)
16.09.2018 08:00 10,1 C 89 % 1021,2 hPa 0,0 l/m N-NO 0,83 h 156 W/m 5,2 km/h (1 Bft)
16.09.2018 09:00 12,4 C 84 % 1021,3 hPa 0,0 l/m N-NO 1,00 h 345 W/m 2,0 km/h (1 Bft)
16.09.2018 10:00 15,3 C 79 % 1021,2 hPa 0,0 l/m N-NO 1,00 h 489 W/m 6,7 km/h (2 Bft)
16.09.2018 11:00 18,2 C 74 % 1020,8 hPa 0,0 l/m NO 0,92 h 609 W/m 6,6 km/h (2 Bft)
16.09.2018 12:00 20,7 C 68 % 1020,2 hPa 0,0 l/m O-NO 1,00 h 654 W/m 8,2 km/h (2 Bft)
16.09.2018 13:00 22,2 C 64 % 1019,8 hPa 0,0 l/m O 1,00 h 667 W/m 7,0 km/h (2 Bft)
16.09.2018 14:00 22,8 C 64 % 1019,2 hPa 0,0 l/m O-NO 1,00 h 558 W/m 9,2 km/h (2 Bft)
16.09.2018 15:00 23,3 C 63 % 1018,6 hPa 0,0 l/m O-NO 1,00 h 491 W/m 9,1 km/h (2 Bft)
16.09.2018 16:00 22,9 C 65 % 1018,1 hPa 0,0 l/m O-NO 0,58 h 256 W/m 5,7 km/h (1 Bft)
16.09.2018 17:00 22,6 C 66 % 1017,9 hPa 0,0 l/m N 0,50 h 170 W/m 3,2 km/h (1 Bft)
16.09.2018 18:00 21,7 C 70 % 1017,9 hPa 0,0 l/m N 0,00 h 53 W/m 1,9 km/h (1 Bft)
16.09.2018 19:00 20,1 C 79 % 1018,3 hPa 0,0 l/m N 0,00 h 12 W/m 0,0 km/h (0 Bft)
16.09.2018 20:00 18,5 C 85 % 1018,9 hPa 0,0 l/m N 0,00 h 0 W/m 0,0 km/h (0 Bft)
16.09.2018 21:00 16,6 C 91 % 1019,3 hPa 0,0 l/m N 0,00 h 0 W/m 0,0 km/h (0 Bft)
16.09.2018 22:00 15,3 C 93 % 1019,4 hPa 0,0 l/m N 0,00 h 0 W/m 0,0 km/h (0 Bft)
16.09.2018 23:00 14,2 C 94 % 1019,3 hPa 0,0 l/m N 0,00 h 0 W/m 0,0 km/h (0 Bft)
Min-Datum _ 16.09.18 11.09.18 13.09.18 - - - - 10.09.18
_ Min-Zeit 07:10 15:55 14:50 - - - - 00:00
Minimum _ 8,7 C 34 % 1013,0 hPa - - - - 0,0 km/h (0 Bft)
Max-Datum _ 12.09.18 14.09.18 11.09.18 13.09.18 - 10.09.18 13.09.18 11.09.18
_ Max-Zeit 14:55 05:10 10:15 16:50 - 07:40 14:15 14:55
Maximum _ 29,7 C 99 % 1023,9 hPa 2,4 l/m - 0,08 h 928 W/m 30,6 km/h
SW (5 Bft)
Durchschnitt _ 17,6 C 78 % 1019,2 hPa #10,0 l/m SW #56:45 h 315 W/m 4,3 km/h (1 Bft)